sensor_id;sensor_type;location;lat;lon;timestamp;P1;durP1;ratioP1;P2;durP2;ratioP2
76826;SDS011;65788;52.284;20.890;2024-01-16T00:01:18;4.70;;;1.50;;
76826;SDS011;65788;52.284;20.890;2024-01-16T00:02:55;5.10;;;1.50;;
76826;SDS011;65788;52.284;20.890;2024-01-16T00:04:32;3.40;;;1.70;;
76826;SDS011;65788;52.284;20.890;2024-01-16T00:06:09;2.50;;;1.50;;
76826;SDS011;65788;52.284;20.890;2024-01-16T00:07:46;2.50;;;1.50;;
76826;SDS011;65788;52.284;20.890;2024-01-16T00:09:25;5.20;;;1.70;;
76826;SDS011;65788;52.284;20.890;2024-01-16T00:11:02;11.20;;;1.40;;
76826;SDS011;65788;52.284;20.890;2024-01-16T00:12:41;3.10;;;1.40;;
76826;SDS011;65788;52.284;20.890;2024-01-16T00:14:19;2.30;;;1.10;;
76826;SDS011;65788;52.284;20.890;2024-01-16T00:15:56;4.60;;;1.40;;
76826;SDS011;65788;52.284;20.890;2024-01-16T00:17:34;4.30;;;1.40;;
76826;SDS011;65788;52.284;20.890;2024-01-16T00:19:12;2.60;;;1.40;;
76826;SDS011;65788;52.284;20.890;2024-01-16T00:20:49;2.30;;;1.20;;
76826;SDS011;65788;52.284;20.890;2024-01-16T00:22:27;2.50;;;1.10;;
76826;SDS011;65788;52.284;20.890;2024-01-16T00:24:05;3.10;;;1.50;;
76826;SDS011;65788;52.284;20.890;2024-01-16T00:25:41;4.60;;;1.50;;
76826;SDS011;65788;52.284;20.890;2024-01-16T00:27:19;3.10;;;1.30;;
76826;SDS011;65788;52.284;20.890;2024-01-16T00:28:56;2.70;;;1.30;;
76826;SDS011;65788;52.284;20.890;2024-01-16T00:30:35;3.20;;;1.40;;
76826;SDS011;65788;52.284;20.890;2024-01-16T00:32:12;3.40;;;1.40;;
76826;SDS011;65788;52.284;20.890;2024-01-16T00:33:52;3.20;;;1.50;;
76826;SDS011;65788;52.284;20.890;2024-01-16T00:35:29;3.60;;;1.60;;
76826;SDS011;65788;52.284;20.890;2024-01-16T00:37:06;3.30;;;1.40;;
76826;SDS011;65788;52.284;20.890;2024-01-16T00:38:43;3.10;;;1.50;;
76826;SDS011;65788;52.284;20.890;2024-01-16T00:40:20;2.80;;;1.40;;
76826;SDS011;65788;52.284;20.890;2024-01-16T00:41:57;3.60;;;1.60;;
76826;SDS011;65788;52.284;20.890;2024-01-16T00:43:34;3.40;;;1.40;;
76826;SDS011;65788;52.284;20.890;2024-01-16T00:45:14;3.70;;;1.30;;
76826;SDS011;65788;52.284;20.890;2024-01-16T00:46:53;2.50;;;1.30;;
76826;SDS011;65788;52.284;20.890;2024-01-16T00:48:30;2.70;;;1.30;;
76826;SDS011;65788;52.284;20.890;2024-01-16T00:50:07;3.60;;;1.30;;
76826;SDS011;65788;52.284;20.890;2024-01-16T00:51:46;3.50;;;1.30;;
76826;SDS011;65788;52.284;20.890;2024-01-16T00:53:22;3.50;;;1.30;;
76826;SDS011;65788;52.284;20.890;2024-01-16T00:55:02;3.20;;;1.30;;
76826;SDS011;65788;52.284;20.890;2024-01-16T00:56:41;2.40;;;1.20;;
76826;SDS011;65788;52.284;20.890;2024-01-16T00:58:23;2.40;;;1.30;;
76826;SDS011;65788;52.284;20.890;2024-01-16T01:00:03;3.50;;;1.40;;
76826;SDS011;65788;52.284;20.890;2024-01-16T01:01:44;3.20;;;1.40;;
76826;SDS011;65788;52.284;20.890;2024-01-16T01:03:25;2.60;;;1.30;;
76826;SDS011;65788;52.284;20.890;2024-01-16T01:05:02;2.60;;;1.30;;
76826;SDS011;65788;52.284;20.890;2024-01-16T01:06:39;2.40;;;1.20;;
76826;SDS011;65788;52.284;20.890;2024-01-16T01:08:16;3.20;;;1.70;;
76826;SDS011;65788;52.284;20.890;2024-01-16T01:09:53;3.30;;;1.50;;
76826;SDS011;65788;52.284;20.890;2024-01-16T01:11:31;2.90;;;1.30;;
76826;SDS011;65788;52.284;20.890;2024-01-16T01:13:08;2.30;;;1.20;;
76826;SDS011;65788;52.284;20.890;2024-01-16T01:14:45;2.30;;;1.20;;
76826;SDS011;65788;52.284;20.890;2024-01-16T01:16:22;3.20;;;1.30;;
76826;SDS011;65788;52.284;20.890;2024-01-16T01:17:59;2.20;;;1.30;;
76826;SDS011;65788;52.284;20.890;2024-01-16T01:19:37;2.70;;;1.30;;
76826;SDS011;65788;52.284;20.890;2024-01-16T01:21:14;3.20;;;1.20;;
76826;SDS011;65788;52.284;20.890;2024-01-16T01:22:51;3.30;;;1.40;;
76826;SDS011;65788;52.284;20.890;2024-01-16T01:24:30;2.80;;;1.30;;
76826;SDS011;65788;52.284;20.890;2024-01-16T01:26:11;3.00;;;1.30;;
76826;SDS011;65788;52.284;20.890;2024-01-16T01:27:51;3.00;;;1.50;;
76826;SDS011;65788;52.284;20.890;2024-01-16T01:29:29;3.00;;;1.20;;
76826;SDS011;65788;52.284;20.890;2024-01-16T01:31:10;2.70;;;1.40;;
76826;SDS011;65788;52.284;20.890;2024-01-16T01:32:48;3.00;;;1.30;;
76826;SDS011;65788;52.284;20.890;2024-01-16T01:34:30;2.50;;;1.10;;
76826;SDS011;65788;52.284;20.890;2024-01-16T01:36:07;2.80;;;1.40;;
76826;SDS011;65788;52.284;20.890;2024-01-16T01:37:45;2.50;;;1.50;;
76826;SDS011;65788;52.284;20.890;2024-01-16T01:39:24;2.90;;;1.50;;
76826;SDS011;65788;52.284;20.890;2024-01-16T01:41:04;2.30;;;1.20;;
76826;SDS011;65788;52.284;20.890;2024-01-16T01:42:41;3.10;;;1.20;;
76826;SDS011;65788;52.284;20.890;2024-01-16T01:44:19;2.20;;;1.30;;
76826;SDS011;65788;52.284;20.890;2024-01-16T01:46:16;2.80;;;1.40;;
76826;SDS011;65788;52.284;20.890;2024-01-16T01:47:56;2.70;;;1.30;;
76826;SDS011;65788;52.284;20.890;2024-01-16T01:49:34;3.10;;;1.40;;
76826;SDS011;65788;52.284;20.890;2024-01-16T01:51:17;2.50;;;1.40;;
76826;SDS011;65788;52.284;20.890;2024-01-16T01:52:57;2.50;;;1.20;;
76826;SDS011;65788;52.284;20.890;2024-01-16T01:54:35;1.90;;;1.20;;
76826;SDS011;65788;52.284;20.890;2024-01-16T01:56:14;3.10;;;1.60;;
76826;SDS011;65788;52.284;20.890;2024-01-16T01:57:53;2.60;;;1.10;;
76826;SDS011;65788;52.284;20.890;2024-01-16T01:59:33;2.20;;;1.30;;
76826;SDS011;65788;52.284;20.890;2024-01-16T02:01:13;2.10;;;1.20;;
76826;SDS011;65788;52.284;20.890;2024-01-16T02:02:53;1.70;;;1.20;;
76826;SDS011;65788;52.284;20.890;2024-01-16T02:04:31;3.00;;;1.30;;
76826;SDS011;65788;52.284;20.890;2024-01-16T02:06:12;1.80;;;1.00;;
76826;SDS011;65788;52.284;20.890;2024-01-16T02:07:51;2.40;;;1.20;;
76826;SDS011;65788;52.284;20.890;2024-01-16T02:09:31;1.80;;;1.10;;
76826;SDS011;65788;52.284;20.890;2024-01-16T02:11:09;2.30;;;1.20;;
76826;SDS011;65788;52.284;20.890;2024-01-16T02:12:47;2.80;;;1.20;;
76826;SDS011;65788;52.284;20.890;2024-01-16T02:14:27;2.70;;;1.40;;
76826;SDS011;65788;52.284;20.890;2024-01-16T02:16:05;2.90;;;1.10;;
76826;SDS011;65788;52.284;20.890;2024-01-16T02:17:47;2.30;;;1.20;;
76826;SDS011;65788;52.284;20.890;2024-01-16T02:19:24;2.50;;;1.20;;
76826;SDS011;65788;52.284;20.890;2024-01-16T02:21:02;2.40;;;1.30;;
76826;SDS011;65788;52.284;20.890;2024-01-16T02:22:44;2.10;;;1.20;;
76826;SDS011;65788;52.284;20.890;2024-01-16T02:24:26;1.90;;;1.20;;
76826;SDS011;65788;52.284;20.890;2024-01-16T02:26:04;2.80;;;1.20;;
76826;SDS011;65788;52.284;20.890;2024-01-16T02:27:42;2.00;;;1.10;;
76826;SDS011;65788;52.284;20.890;2024-01-16T02:29:19;1.70;;;1.00;;
76826;SDS011;65788;52.284;20.890;2024-01-16T02:30:56;2.40;;;1.40;;
76826;SDS011;65788;52.284;20.890;2024-01-16T02:32:33;2.00;;;1.10;;
76826;SDS011;65788;52.284;20.890;2024-01-16T02:34:15;2.50;;;1.20;;
76826;SDS011;65788;52.284;20.890;2024-01-16T02:35:52;2.30;;;1.20;;
76826;SDS011;65788;52.284;20.890;2024-01-16T02:37:33;2.30;;;1.00;;
76826;SDS011;65788;52.284;20.890;2024-01-16T02:39:10;2.60;;;1.20;;
76826;SDS011;65788;52.284;20.890;2024-01-16T02:40:48;3.80;;;1.10;;
76826;SDS011;65788;52.284;20.890;2024-01-16T02:42:29;2.00;;;1.20;;
76826;SDS011;65788;52.284;20.890;2024-01-16T02:44:14;2.40;;;1.20;;
76826;SDS011;65788;52.284;20.890;2024-01-16T02:47:43;2.30;;;1.10;;
76826;SDS011;65788;52.284;20.890;2024-01-16T02:49:23;2.00;;;1.20;;
76826;SDS011;65788;52.284;20.890;2024-01-16T02:51:05;3.20;;;1.40;;
76826;SDS011;65788;52.284;20.890;2024-01-16T02:52:42;2.00;;;1.10;;
76826;SDS011;65788;52.284;20.890;2024-01-16T02:54:19;2.30;;;1.10;;
76826;SDS011;65788;52.284;20.890;2024-01-16T02:55:56;2.20;;;1.00;;
76826;SDS011;65788;52.284;20.890;2024-01-16T02:57:39;2.50;;;1.30;;
76826;SDS011;65788;52.284;20.890;2024-01-16T02:59:17;1.80;;;1.10;;
76826;SDS011;65788;52.284;20.890;2024-01-16T03:00:55;1.90;;;1.00;;
76826;SDS011;65788;52.284;20.890;2024-01-16T03:02:34;2.30;;;1.30;;
76826;SDS011;65788;52.284;20.890;2024-01-16T03:04:11;2.60;;;0.90;;
76826;SDS011;65788;52.284;20.890;2024-01-16T03:05:48;2.90;;;1.30;;
76826;SDS011;65788;52.284;20.890;2024-01-16T03:07:25;1.50;;;0.90;;
76826;SDS011;65788;52.284;20.890;2024-01-16T03:09:03;2.80;;;1.00;;
76826;SDS011;65788;52.284;20.890;2024-01-16T03:10:42;2.00;;;0.90;;
76826;SDS011;65788;52.284;20.890;2024-01-16T03:12:23;2.60;;;0.90;;
76826;SDS011;65788;52.284;20.890;2024-01-16T03:14:02;2.40;;;1.10;;
76826;SDS011;65788;52.284;20.890;2024-01-16T03:15:41;2.30;;;1.00;;
76826;SDS011;65788;52.284;20.890;2024-01-16T03:17:20;1.80;;;1.10;;
76826;SDS011;65788;52.284;20.890;2024-01-16T03:18:57;2.50;;;1.00;;
76826;SDS011;65788;52.284;20.890;2024-01-16T03:20:36;1.80;;;1.00;;
76826;SDS011;65788;52.284;20.890;2024-01-16T03:22:12;2.20;;;1.10;;
76826;SDS011;65788;52.284;20.890;2024-01-16T03:23:50;2.50;;;1.10;;
76826;SDS011;65788;52.284;20.890;2024-01-16T03:25:29;2.20;;;1.10;;
76826;SDS011;65788;52.284;20.890;2024-01-16T03:27:09;1.80;;;0.90;;
76826;SDS011;65788;52.284;20.890;2024-01-16T03:28:47;2.60;;;1.20;;
76826;SDS011;65788;52.284;20.890;2024-01-16T03:30:24;2.10;;;0.90;;
76826;SDS011;65788;52.284;20.890;2024-01-16T03:32:01;1.70;;;1.00;;
76826;SDS011;65788;52.284;20.890;2024-01-16T03:33:39;2.50;;;1.10;;
76826;SDS011;65788;52.284;20.890;2024-01-16T03:35:18;2.90;;;1.20;;
76826;SDS011;65788;52.284;20.890;2024-01-16T03:36:55;2.20;;;1.10;;
76826;SDS011;65788;52.284;20.890;2024-01-16T03:38:33;1.50;;;0.80;;
76826;SDS011;65788;52.284;20.890;2024-01-16T03:40:12;1.80;;;1.00;;
76826;SDS011;65788;52.284;20.890;2024-01-16T03:41:50;1.10;;;0.90;;
76826;SDS011;65788;52.284;20.890;2024-01-16T03:43:27;1.60;;;0.90;;
76826;SDS011;65788;52.284;20.890;2024-01-16T03:45:05;1.90;;;1.00;;
76826;SDS011;65788;52.284;20.890;2024-01-16T03:46:50;1.70;;;0.70;;
76826;SDS011;65788;52.284;20.890;2024-01-16T03:48:27;2.00;;;1.10;;
76826;SDS011;65788;52.284;20.890;2024-01-16T03:50:04;2.10;;;1.10;;
76826;SDS011;65788;52.284;20.890;2024-01-16T03:51:43;3.30;;;1.10;;
76826;SDS011;65788;52.284;20.890;2024-01-16T03:53:22;2.10;;;1.20;;
76826;SDS011;65788;52.284;20.890;2024-01-16T03:55:05;2.20;;;1.10;;
76826;SDS011;65788;52.284;20.890;2024-01-16T03:56:42;2.60;;;1.20;;
76826;SDS011;65788;52.284;20.890;2024-01-16T03:58:35;2.90;;;1.50;;
76826;SDS011;65788;52.284;20.890;2024-01-16T04:00:15;2.00;;;1.10;;
76826;SDS011;65788;52.284;20.890;2024-01-16T04:01:55;2.30;;;1.10;;
76826;SDS011;65788;52.284;20.890;2024-01-16T04:03:35;2.50;;;1.10;;
76826;SDS011;65788;52.284;20.890;2024-01-16T04:05:13;2.30;;;1.20;;
76826;SDS011;65788;52.284;20.890;2024-01-16T04:06:50;4.20;;;1.00;;
76826;SDS011;65788;52.284;20.890;2024-01-16T04:08:33;1.90;;;1.10;;
76826;SDS011;65788;52.284;20.890;2024-01-16T04:10:16;3.00;;;1.20;;
76826;SDS011;65788;52.284;20.890;2024-01-16T04:11:54;2.40;;;1.20;;
76826;SDS011;65788;52.284;20.890;2024-01-16T04:13:54;2.50;;;1.10;;
76826;SDS011;65788;52.284;20.890;2024-01-16T04:15:51;3.20;;;1.10;;
76826;SDS011;65788;52.284;20.890;2024-01-16T04:17:31;2.30;;;1.00;;
76826;SDS011;65788;52.284;20.890;2024-01-16T04:19:09;2.90;;;1.10;;
76826;SDS011;65788;52.284;20.890;2024-01-16T04:20:49;2.00;;;1.10;;
76826;SDS011;65788;52.284;20.890;2024-01-16T04:22:28;3.60;;;1.10;;
76826;SDS011;65788;52.284;20.890;2024-01-16T04:24:05;2.60;;;1.30;;
76826;SDS011;65788;52.284;20.890;2024-01-16T04:25:42;3.20;;;1.40;;
76826;SDS011;65788;52.284;20.890;2024-01-16T04:27:19;3.70;;;1.00;;
76826;SDS011;65788;52.284;20.890;2024-01-16T04:28:56;2.70;;;1.10;;
76826;SDS011;65788;52.284;20.890;2024-01-16T04:30:36;2.70;;;1.10;;
76826;SDS011;65788;52.284;20.890;2024-01-16T04:32:13;3.00;;;1.10;;
76826;SDS011;65788;52.284;20.890;2024-01-16T04:33:50;2.00;;;1.10;;
76826;SDS011;65788;52.284;20.890;2024-01-16T04:35:27;5.00;;;1.30;;
76826;SDS011;65788;52.284;20.890;2024-01-16T04:37:05;2.20;;;0.90;;
76826;SDS011;65788;52.284;20.890;2024-01-16T04:40:21;2.70;;;1.10;;
76826;SDS011;65788;52.284;20.890;2024-01-16T04:42:00;2.10;;;1.10;;
76826;SDS011;65788;52.284;20.890;2024-01-16T04:43:39;2.60;;;1.20;;
76826;SDS011;65788;52.284;20.890;2024-01-16T04:45:17;3.40;;;1.20;;
76826;SDS011;65788;52.284;20.890;2024-01-16T04:46:55;3.30;;;1.10;;
76826;SDS011;65788;52.284;20.890;2024-01-16T04:48:32;2.60;;;1.10;;
76826;SDS011;65788;52.284;20.890;2024-01-16T04:50:09;3.90;;;1.30;;
76826;SDS011;65788;52.284;20.890;2024-01-16T04:51:46;2.40;;;1.20;;
76826;SDS011;65788;52.284;20.890;2024-01-16T04:53:27;4.10;;;1.50;;
76826;SDS011;65788;52.284;20.890;2024-01-16T04:55:04;1.80;;;1.10;;
76826;SDS011;65788;52.284;20.890;2024-01-16T04:56:43;3.60;;;1.40;;
76826;SDS011;65788;52.284;20.890;2024-01-16T04:58:27;3.70;;;1.40;;
76826;SDS011;65788;52.284;20.890;2024-01-16T05:00:05;2.60;;;1.40;;
76826;SDS011;65788;52.284;20.890;2024-01-16T05:01:44;3.30;;;1.60;;
76826;SDS011;65788;52.284;20.890;2024-01-16T05:03:23;6.80;;;1.50;;
76826;SDS011;65788;52.284;20.890;2024-01-16T05:05:00;3.10;;;1.20;;
76826;SDS011;65788;52.284;20.890;2024-01-16T05:06:37;3.10;;;1.40;;
76826;SDS011;65788;52.284;20.890;2024-01-16T05:08:15;3.00;;;1.40;;
76826;SDS011;65788;52.284;20.890;2024-01-16T05:09:52;3.40;;;1.40;;
76826;SDS011;65788;52.284;20.890;2024-01-16T05:11:30;4.30;;;1.80;;
76826;SDS011;65788;52.284;20.890;2024-01-16T05:13:07;3.20;;;1.40;;
76826;SDS011;65788;52.284;20.890;2024-01-16T05:14:44;2.60;;;1.40;;
76826;SDS011;65788;52.284;20.890;2024-01-16T05:16:21;3.50;;;1.40;;
76826;SDS011;65788;52.284;20.890;2024-01-16T05:17:58;2.90;;;1.30;;
76826;SDS011;65788;52.284;20.890;2024-01-16T05:19:35;3.60;;;1.50;;
76826;SDS011;65788;52.284;20.890;2024-01-16T05:22:51;3.70;;;1.50;;
76826;SDS011;65788;52.284;20.890;2024-01-16T05:24:31;3.70;;;1.20;;
76826;SDS011;65788;52.284;20.890;2024-01-16T05:26:08;3.30;;;1.40;;
76826;SDS011;65788;52.284;20.890;2024-01-16T05:27:46;5.00;;;1.70;;
76826;SDS011;65788;52.284;20.890;2024-01-16T05:29:24;3.40;;;1.40;;
76826;SDS011;65788;52.284;20.890;2024-01-16T05:31:04;2.60;;;1.10;;
76826;SDS011;65788;52.284;20.890;2024-01-16T05:32:41;3.30;;;1.30;;
76826;SDS011;65788;52.284;20.890;2024-01-16T05:34:20;4.10;;;1.40;;
76826;SDS011;65788;52.284;20.890;2024-01-16T05:35:57;2.50;;;1.20;;
76826;SDS011;65788;52.284;20.890;2024-01-16T05:37:34;3.40;;;1.60;;
76826;SDS011;65788;52.284;20.890;2024-01-16T05:39:15;3.50;;;1.40;;
76826;SDS011;65788;52.284;20.890;2024-01-16T05:40:53;5.50;;;1.50;;
76826;SDS011;65788;52.284;20.890;2024-01-16T05:42:30;3.30;;;1.50;;
76826;SDS011;65788;52.284;20.890;2024-01-16T05:44:07;2.90;;;1.50;;
76826;SDS011;65788;52.284;20.890;2024-01-16T05:45:45;3.40;;;1.50;;
76826;SDS011;65788;52.284;20.890;2024-01-16T05:47:22;3.00;;;1.40;;
76826;SDS011;65788;52.284;20.890;2024-01-16T05:49:04;3.70;;;1.50;;
76826;SDS011;65788;52.284;20.890;2024-01-16T05:50:41;2.60;;;1.30;;
76826;SDS011;65788;52.284;20.890;2024-01-16T05:52:19;3.10;;;1.30;;
76826;SDS011;65788;52.284;20.890;2024-01-16T05:53:55;2.50;;;1.30;;
76826;SDS011;65788;52.284;20.890;2024-01-16T05:55:41;3.40;;;1.30;;
76826;SDS011;65788;52.284;20.890;2024-01-16T05:57:19;3.90;;;1.70;;
76826;SDS011;65788;52.284;20.890;2024-01-16T05:58:56;3.60;;;1.70;;
76826;SDS011;65788;52.284;20.890;2024-01-16T06:00:33;4.70;;;1.60;;
76826;SDS011;65788;52.284;20.890;2024-01-16T06:02:11;2.50;;;1.20;;
76826;SDS011;65788;52.284;20.890;2024-01-16T06:03:48;3.40;;;1.50;;
76826;SDS011;65788;52.284;20.890;2024-01-16T06:05:25;4.00;;;1.90;;
76826;SDS011;65788;52.284;20.890;2024-01-16T06:07:02;2.60;;;1.20;;
76826;SDS011;65788;52.284;20.890;2024-01-16T06:08:43;3.40;;;1.60;;
76826;SDS011;65788;52.284;20.890;2024-01-16T06:10:20;4.10;;;1.70;;
76826;SDS011;65788;52.284;20.890;2024-01-16T06:11:58;2.90;;;1.30;;
76826;SDS011;65788;52.284;20.890;2024-01-16T06:13:35;4.70;;;1.40;;
76826;SDS011;65788;52.284;20.890;2024-01-16T06:15:14;3.40;;;1.50;;
76826;SDS011;65788;52.284;20.890;2024-01-16T06:16:51;2.50;;;1.40;;
76826;SDS011;65788;52.284;20.890;2024-01-16T06:18:31;3.80;;;1.70;;
76826;SDS011;65788;52.284;20.890;2024-01-16T06:20:11;3.40;;;1.70;;
76826;SDS011;65788;52.284;20.890;2024-01-16T06:21:48;2.80;;;1.50;;
76826;SDS011;65788;52.284;20.890;2024-01-16T06:23:25;3.50;;;1.60;;
76826;SDS011;65788;52.284;20.890;2024-01-16T06:25:02;4.50;;;1.60;;
76826;SDS011;65788;52.284;20.890;2024-01-16T06:26:39;2.60;;;1.50;;
76826;SDS011;65788;52.284;20.890;2024-01-16T06:28:16;4.00;;;1.50;;
76826;SDS011;65788;52.284;20.890;2024-01-16T06:29:53;4.20;;;1.70;;
76826;SDS011;65788;52.284;20.890;2024-01-16T06:31:31;4.00;;;1.80;;
76826;SDS011;65788;52.284;20.890;2024-01-16T06:33:08;4.50;;;1.60;;
76826;SDS011;65788;52.284;20.890;2024-01-16T06:34:45;3.50;;;1.90;;
76826;SDS011;65788;52.284;20.890;2024-01-16T06:36:22;3.60;;;1.70;;
76826;SDS011;65788;52.284;20.890;2024-01-16T06:37:59;3.90;;;1.60;;
76826;SDS011;65788;52.284;20.890;2024-01-16T06:39:36;3.80;;;1.80;;
76826;SDS011;65788;52.284;20.890;2024-01-16T06:41:14;4.00;;;1.80;;
76826;SDS011;65788;52.284;20.890;2024-01-16T06:42:51;4.80;;;1.80;;
76826;SDS011;65788;52.284;20.890;2024-01-16T06:44:28;3.90;;;1.50;;
76826;SDS011;65788;52.284;20.890;2024-01-16T06:46:05;3.60;;;1.80;;
76826;SDS011;65788;52.284;20.890;2024-01-16T06:47:42;3.60;;;1.70;;
76826;SDS011;65788;52.284;20.890;2024-01-16T06:49:19;4.10;;;1.60;;
76826;SDS011;65788;52.284;20.890;2024-01-16T06:50:59;4.00;;;1.80;;
76826;SDS011;65788;52.284;20.890;2024-01-16T06:52:37;4.30;;;1.40;;
76826;SDS011;65788;52.284;20.890;2024-01-16T06:54:14;4.20;;;1.80;;
76826;SDS011;65788;52.284;20.890;2024-01-16T06:55:52;2.90;;;1.30;;
76826;SDS011;65788;52.284;20.890;2024-01-16T06:57:29;3.10;;;1.60;;
76826;SDS011;65788;52.284;20.890;2024-01-16T06:59:06;3.50;;;1.80;;
76826;SDS011;65788;52.284;20.890;2024-01-16T07:00:46;2.80;;;1.50;;
76826;SDS011;65788;52.284;20.890;2024-01-16T07:02:23;3.40;;;1.50;;
76826;SDS011;65788;52.284;20.890;2024-01-16T07:04:01;3.90;;;1.80;;
76826;SDS011;65788;52.284;20.890;2024-01-16T07:05:40;4.50;;;1.50;;
76826;SDS011;65788;52.284;20.890;2024-01-16T07:07:21;3.40;;;1.50;;
76826;SDS011;65788;52.284;20.890;2024-01-16T07:08:57;4.50;;;1.90;;
76826;SDS011;65788;52.284;20.890;2024-01-16T07:10:39;3.70;;;1.50;;
76826;SDS011;65788;52.284;20.890;2024-01-16T07:12:16;4.90;;;1.50;;
76826;SDS011;65788;52.284;20.890;2024-01-16T07:13:55;4.10;;;1.80;;
76826;SDS011;65788;52.284;20.890;2024-01-16T07:15:32;4.00;;;1.50;;
76826;SDS011;65788;52.284;20.890;2024-01-16T07:17:10;3.40;;;1.60;;
76826;SDS011;65788;52.284;20.890;2024-01-16T07:18:47;3.80;;;1.50;;
76826;SDS011;65788;52.284;20.890;2024-01-16T07:20:25;4.10;;;2.00;;
76826;SDS011;65788;52.284;20.890;2024-01-16T07:22:02;3.50;;;1.60;;
76826;SDS011;65788;52.284;20.890;2024-01-16T07:23:40;3.20;;;1.50;;
76826;SDS011;65788;52.284;20.890;2024-01-16T07:25:18;3.70;;;1.60;;
76826;SDS011;65788;52.284;20.890;2024-01-16T07:26:57;2.80;;;1.40;;
76826;SDS011;65788;52.284;20.890;2024-01-16T07:28:35;4.00;;;1.90;;
76826;SDS011;65788;52.284;20.890;2024-01-16T07:30:13;3.20;;;1.70;;
76826;SDS011;65788;52.284;20.890;2024-01-16T07:31:50;5.70;;;2.00;;
76826;SDS011;65788;52.284;20.890;2024-01-16T07:33:34;3.50;;;1.50;;
76826;SDS011;65788;52.284;20.890;2024-01-16T07:35:11;4.10;;;1.60;;
76826;SDS011;65788;52.284;20.890;2024-01-16T07:36:51;5.70;;;1.80;;
76826;SDS011;65788;52.284;20.890;2024-01-16T07:38:28;5.20;;;1.70;;
76826;SDS011;65788;52.284;20.890;2024-01-16T07:40:06;5.40;;;2.40;;
76826;SDS011;65788;52.284;20.890;2024-01-16T07:41:46;3.30;;;1.70;;
76826;SDS011;65788;52.284;20.890;2024-01-16T07:43:24;4.70;;;1.80;;
76826;SDS011;65788;52.284;20.890;2024-01-16T07:45:04;7.20;;;2.60;;
76826;SDS011;65788;52.284;20.890;2024-01-16T07:46:42;5.40;;;2.20;;
76826;SDS011;65788;52.284;20.890;2024-01-16T07:48:20;5.50;;;2.30;;
76826;SDS011;65788;52.284;20.890;2024-01-16T07:49:57;5.40;;;2.00;;
76826;SDS011;65788;52.284;20.890;2024-01-16T07:51:34;5.50;;;2.20;;
76826;SDS011;65788;52.284;20.890;2024-01-16T07:53:12;6.70;;;1.90;;
76826;SDS011;65788;52.284;20.890;2024-01-16T07:54:49;5.30;;;2.20;;
76826;SDS011;65788;52.284;20.890;2024-01-16T07:56:26;5.50;;;2.20;;
76826;SDS011;65788;52.284;20.890;2024-01-16T07:58:03;4.80;;;2.00;;
76826;SDS011;65788;52.284;20.890;2024-01-16T08:01:19;7.40;;;2.20;;
76826;SDS011;65788;52.284;20.890;2024-01-16T08:02:56;5.30;;;2.10;;
76826;SDS011;65788;52.284;20.890;2024-01-16T08:04:36;4.80;;;2.20;;
76826;SDS011;65788;52.284;20.890;2024-01-16T08:06:13;5.00;;;2.50;;
76826;SDS011;65788;52.284;20.890;2024-01-16T08:07:51;4.80;;;2.30;;
76826;SDS011;65788;52.284;20.890;2024-01-16T08:09:30;5.30;;;2.00;;
76826;SDS011;65788;52.284;20.890;2024-01-16T08:11:08;5.80;;;2.50;;
76826;SDS011;65788;52.284;20.890;2024-01-16T08:12:45;7.60;;;2.10;;
76826;SDS011;65788;52.284;20.890;2024-01-16T08:14:23;5.60;;;2.30;;
76826;SDS011;65788;52.284;20.890;2024-01-16T08:16:03;6.00;;;2.30;;
76826;SDS011;65788;52.284;20.890;2024-01-16T08:17:43;6.80;;;2.40;;
76826;SDS011;65788;52.284;20.890;2024-01-16T08:19:22;5.20;;;1.70;;
76826;SDS011;65788;52.284;20.890;2024-01-16T08:21:01;4.20;;;1.80;;
76826;SDS011;65788;52.284;20.890;2024-01-16T08:22:39;4.60;;;2.10;;
76826;SDS011;65788;52.284;20.890;2024-01-16T08:24:18;4.10;;;1.90;;
76826;SDS011;65788;52.284;20.890;2024-01-16T08:25:56;4.90;;;2.30;;
76826;SDS011;65788;52.284;20.890;2024-01-16T08:27:33;3.80;;;2.10;;
76826;SDS011;65788;52.284;20.890;2024-01-16T08:29:24;6.50;;;2.10;;
76826;SDS011;65788;52.284;20.890;2024-01-16T08:31:01;5.00;;;1.90;;
76826;SDS011;65788;52.284;20.890;2024-01-16T08:32:53;6.10;;;2.10;;
76826;SDS011;65788;52.284;20.890;2024-01-16T08:34:33;6.10;;;2.30;;
76826;SDS011;65788;52.284;20.890;2024-01-16T08:36:11;3.80;;;1.90;;
76826;SDS011;65788;52.284;20.890;2024-01-16T08:37:51;5.90;;;2.40;;
76826;SDS011;65788;52.284;20.890;2024-01-16T08:39:29;5.80;;;2.30;;
76826;SDS011;65788;52.284;20.890;2024-01-16T08:41:10;5.70;;;2.30;;
76826;SDS011;65788;52.284;20.890;2024-01-16T08:42:46;4.40;;;2.10;;
76826;SDS011;65788;52.284;20.890;2024-01-16T08:44:27;6.30;;;2.00;;
76826;SDS011;65788;52.284;20.890;2024-01-16T08:46:06;4.50;;;2.10;;
76826;SDS011;65788;52.284;20.890;2024-01-16T08:47:44;6.00;;;2.50;;
76826;SDS011;65788;52.284;20.890;2024-01-16T08:49:21;6.80;;;2.70;;
76826;SDS011;65788;52.284;20.890;2024-01-16T08:50:59;4.80;;;2.30;;
76826;SDS011;65788;52.284;20.890;2024-01-16T08:52:36;7.10;;;2.50;;
76826;SDS011;65788;52.284;20.890;2024-01-16T08:54:12;7.00;;;2.50;;
76826;SDS011;65788;52.284;20.890;2024-01-16T08:55:50;4.60;;;2.40;;
76826;SDS011;65788;52.284;20.890;2024-01-16T08:57:28;4.40;;;2.30;;
76826;SDS011;65788;52.284;20.890;2024-01-16T08:59:05;8.80;;;2.60;;
76826;SDS011;65788;52.284;20.890;2024-01-16T09:00:43;6.00;;;2.40;;
76826;SDS011;65788;52.284;20.890;2024-01-16T09:02:20;4.70;;;2.40;;
76826;SDS011;65788;52.284;20.890;2024-01-16T09:03:58;4.80;;;2.40;;
76826;SDS011;65788;52.284;20.890;2024-01-16T09:05:37;5.50;;;2.10;;
76826;SDS011;65788;52.284;20.890;2024-01-16T09:07:18;5.60;;;2.10;;
76826;SDS011;65788;52.284;20.890;2024-01-16T09:08:56;5.90;;;2.00;;
76826;SDS011;65788;52.284;20.890;2024-01-16T09:10:33;4.60;;;1.90;;
76826;SDS011;65788;52.284;20.890;2024-01-16T09:12:10;5.60;;;2.20;;
76826;SDS011;65788;52.284;20.890;2024-01-16T09:13:48;4.30;;;2.10;;
76826;SDS011;65788;52.284;20.890;2024-01-16T09:15:28;7.70;;;2.10;;
76826;SDS011;65788;52.284;20.890;2024-01-16T09:17:06;5.50;;;2.20;;
76826;SDS011;65788;52.284;20.890;2024-01-16T09:18:45;6.20;;;2.40;;
76826;SDS011;65788;52.284;20.890;2024-01-16T09:20:22;5.80;;;2.20;;
76826;SDS011;65788;52.284;20.890;2024-01-16T09:22:02;4.70;;;2.00;;
76826;SDS011;65788;52.284;20.890;2024-01-16T09:23:40;4.60;;;2.20;;
76826;SDS011;65788;52.284;20.890;2024-01-16T09:25:17;4.30;;;1.80;;
76826;SDS011;65788;52.284;20.890;2024-01-16T09:26:54;5.70;;;1.90;;
76826;SDS011;65788;52.284;20.890;2024-01-16T09:28:34;4.40;;;2.00;;
76826;SDS011;65788;52.284;20.890;2024-01-16T09:30:11;4.10;;;2.20;;
76826;SDS011;65788;52.284;20.890;2024-01-16T09:31:49;4.20;;;2.00;;
76826;SDS011;65788;52.284;20.890;2024-01-16T09:33:29;5.10;;;2.30;;
76826;SDS011;65788;52.284;20.890;2024-01-16T09:35:07;4.20;;;2.00;;
76826;SDS011;65788;52.284;20.890;2024-01-16T09:36:48;7.70;;;2.10;;
76826;SDS011;65788;52.284;20.890;2024-01-16T09:38:25;6.10;;;2.00;;
76826;SDS011;65788;52.284;20.890;2024-01-16T09:40:01;4.20;;;2.00;;
76826;SDS011;65788;52.284;20.890;2024-01-16T09:41:41;6.30;;;2.10;;
76826;SDS011;65788;52.284;20.890;2024-01-16T09:43:20;5.10;;;1.90;;
76826;SDS011;65788;52.284;20.890;2024-01-16T09:45:00;5.50;;;2.40;;
76826;SDS011;65788;52.284;20.890;2024-01-16T09:46:42;5.20;;;1.90;;
76826;SDS011;65788;52.284;20.890;2024-01-16T09:48:27;5.70;;;2.40;;
76826;SDS011;65788;52.284;20.890;2024-01-16T09:50:06;5.00;;;2.10;;
76826;SDS011;65788;52.284;20.890;2024-01-16T09:51:47;4.10;;;1.80;;